sensor_id;sensor_type;location;lat;lon;timestamp;temperature;humidity
14993;DHT22;7592;51.088;13.732;2022-12-07T00:01:11;4.60;99.90
14993;DHT22;7592;51.088;13.732;2022-12-07T00:06:05;4.60;99.90
14993;DHT22;7592;51.088;13.732;2022-12-07T00:11:23;4.60;99.90
14993;DHT22;7592;51.088;13.732;2022-12-07T00:16:18;4.50;99.90
14993;DHT22;7592;51.088;13.732;2022-12-07T00:21:15;4.50;99.90
14993;DHT22;7592;51.088;13.732;2022-12-07T00:26:20;4.50;99.90
14993;DHT22;7592;51.088;13.732;2022-12-07T00:31:14;4.50;99.90
14993;DHT22;7592;51.088;13.732;2022-12-07T00:36:08;4.50;99.90
14993;DHT22;7592;51.088;13.732;2022-12-07T00:41:06;4.40;99.90
14993;DHT22;7592;51.088;13.732;2022-12-07T00:45:58;4.40;99.90
14993;DHT22;7592;51.088;13.732;2022-12-07T00:50:50;4.40;99.90
14993;DHT22;7592;51.088;13.732;2022-12-07T00:55:43;4.30;99.90
14993;DHT22;7592;51.088;13.732;2022-12-07T01:00:36;4.40;99.90
14993;DHT22;7592;51.088;13.732;2022-12-07T01:05:29;4.40;99.90
14993;DHT22;7592;51.088;13.732;2022-12-07T01:10:22;4.50;99.90
14993;DHT22;7592;51.088;13.732;2022-12-07T01:15:14;4.50;99.90
14993;DHT22;7592;51.088;13.732;2022-12-07T01:20:07;4.50;99.90
14993;DHT22;7592;51.088;13.732;2022-12-07T01:24:59;4.50;99.90
14993;DHT22;7592;51.088;13.732;2022-12-07T01:29:51;4.50;99.90
14993;DHT22;7592;51.088;13.732;2022-12-07T01:34:43;4.50;99.90
14993;DHT22;7592;51.088;13.732;2022-12-07T01:39:35;4.50;99.90
14993;DHT22;7592;51.088;13.732;2022-12-07T01:44:29;4.50;99.90
14993;DHT22;7592;51.088;13.732;2022-12-07T01:49:40;4.50;99.90
14993;DHT22;7592;51.088;13.732;2022-12-07T01:54:34;4.50;99.90
14993;DHT22;7592;51.088;13.732;2022-12-07T01:59:26;4.50;99.90
14993;DHT22;7592;51.088;13.732;2022-12-07T02:04:19;4.50;99.90
14993;DHT22;7592;51.088;13.732;2022-12-07T02:09:22;4.50;99.90
14993;DHT22;7592;51.088;13.732;2022-12-07T02:14:16;4.60;99.90
14993;DHT22;7592;51.088;13.732;2022-12-07T02:29:38;4.20;99.90
14993;DHT22;7592;51.088;13.732;2022-12-07T02:34:55;3.80;99.90
14993;DHT22;7592;51.088;13.732;2022-12-07T02:39:54;3.50;99.90
14993;DHT22;7592;51.088;13.732;2022-12-07T02:44:47;3.10;99.90
14993;DHT22;7592;51.088;13.732;2022-12-07T02:49:40;2.80;99.90
14993;DHT22;7592;51.088;13.732;2022-12-07T02:54:32;2.60;99.90
14993;DHT22;7592;51.088;13.732;2022-12-07T02:59:35;2.50;99.90
14993;DHT22;7592;51.088;13.732;2022-12-07T03:15:52;2.70;99.90
14993;DHT22;7592;51.088;13.732;2022-12-07T03:20:43;2.80;99.90
14993;DHT22;7592;51.088;13.732;2022-12-07T03:25:41;2.80;99.90
14993;DHT22;7592;51.088;13.732;2022-12-07T03:30:49;2.60;99.90
14993;DHT22;7592;51.088;13.732;2022-12-07T03:35:52;2.40;99.90
14993;DHT22;7592;51.088;13.732;2022-12-07T03:40:54;2.30;99.90
14993;DHT22;7592;51.088;13.732;2022-12-07T03:56:15;2.50;99.90
14993;DHT22;7592;51.088;13.732;2022-12-07T04:01:07;2.30;99.90
14993;DHT22;7592;51.088;13.732;2022-12-07T04:05:59;2.20;99.90
14993;DHT22;7592;51.088;13.732;2022-12-07T04:10:51;2.20;99.90
14993;DHT22;7592;51.088;13.732;2022-12-07T04:15:45;2.30;99.90
14993;DHT22;7592;51.088;13.732;2022-12-07T04:20:37;2.30;99.90
14993;DHT22;7592;51.088;13.732;2022-12-07T04:25:29;2.30;99.90
14993;DHT22;7592;51.088;13.732;2022-12-07T04:30:21;2.20;99.90
14993;DHT22;7592;51.088;13.732;2022-12-07T04:35:13;2.10;99.90
14993;DHT22;7592;51.088;13.732;2022-12-07T04:40:07;1.90;99.90
14993;DHT22;7592;51.088;13.732;2022-12-07T04:44:59;1.80;99.90
14993;DHT22;7592;51.088;13.732;2022-12-07T04:49:51;1.80;99.90
14993;DHT22;7592;51.088;13.732;2022-12-07T04:54:43;1.70;99.90
14993;DHT22;7592;51.088;13.732;2022-12-07T04:59:35;1.60;99.90
14993;DHT22;7592;51.088;13.732;2022-12-07T05:04:34;1.60;99.90
14993;DHT22;7592;51.088;13.732;2022-12-07T05:09:26;1.50;99.90
14993;DHT22;7592;51.088;13.732;2022-12-07T05:14:19;1.60;99.90
14993;DHT22;7592;51.088;13.732;2022-12-07T05:19:12;1.70;99.90
14993;DHT22;7592;51.088;13.732;2022-12-07T05:24:05;1.70;99.90
14993;DHT22;7592;51.088;13.732;2022-12-07T05:28:57;1.70;99.90
14993;DHT22;7592;51.088;13.732;2022-12-07T05:33:50;1.80;99.90
14993;DHT22;7592;51.088;13.732;2022-12-07T05:38:42;2.10;99.90
14993;DHT22;7592;51.088;13.732;2022-12-07T05:43:34;2.30;99.90
14993;DHT22;7592;51.088;13.732;2022-12-07T05:48:26;2.50;99.90
14993;DHT22;7592;51.088;13.732;2022-12-07T05:53:18;2.70;99.90
14993;DHT22;7592;51.088;13.732;2022-12-07T05:58:14;2.90;99.90
14993;DHT22;7592;51.088;13.732;2022-12-07T06:03:25;3.10;99.90
14993;DHT22;7592;51.088;13.732;2022-12-07T06:08:17;3.30;99.90
14993;DHT22;7592;51.088;13.732;2022-12-07T06:13:09;3.40;99.90
14993;DHT22;7592;51.088;13.732;2022-12-07T06:18:01;3.50;99.90
14993;DHT22;7592;51.088;13.732;2022-12-07T06:22:53;3.50;99.90
14993;DHT22;7592;51.088;13.732;2022-12-07T06:27:45;3.60;99.90
14993;DHT22;7592;51.088;13.732;2022-12-07T06:32:37;3.60;99.90
14993;DHT22;7592;51.088;13.732;2022-12-07T06:37:29;3.60;99.90
14993;DHT22;7592;51.088;13.732;2022-12-07T06:42:21;3.80;99.90
14993;DHT22;7592;51.088;13.732;2022-12-07T06:47:13;3.80;99.90
14993;DHT22;7592;51.088;13.732;2022-12-07T06:52:25;3.90;99.90
14993;DHT22;7592;51.088;13.732;2022-12-07T06:57:17;4.00;99.90
14993;DHT22;7592;51.088;13.732;2022-12-07T07:02:10;4.10;99.90
14993;DHT22;7592;51.088;13.732;2022-12-07T07:07:02;4.20;99.90
14993;DHT22;7592;51.088;13.732;2022-12-07T07:11:54;4.10;99.90
14993;DHT22;7592;51.088;13.732;2022-12-07T07:16:46;4.10;99.90
14993;DHT22;7592;51.088;13.732;2022-12-07T07:21:38;4.20;99.90
14993;DHT22;7592;51.088;13.732;2022-12-07T07:26:31;4.20;99.90
14993;DHT22;7592;51.088;13.732;2022-12-07T07:31:23;4.20;99.90
14993;DHT22;7592;51.088;13.732;2022-12-07T07:36:15;4.00;99.90
14993;DHT22;7592;51.088;13.732;2022-12-07T07:41:07;4.10;99.90
14993;DHT22;7592;51.088;13.732;2022-12-07T07:45:59;4.10;99.90
14993;DHT22;7592;51.088;13.732;2022-12-07T07:50:52;4.10;99.90
14993;DHT22;7592;51.088;13.732;2022-12-07T07:55:51;4.20;99.90
14993;DHT22;7592;51.088;13.732;2022-12-07T08:00:44;4.30;99.90
14993;DHT22;7592;51.088;13.732;2022-12-07T08:05:37;4.50;99.90
14993;DHT22;7592;51.088;13.732;2022-12-07T08:10:29;4.60;99.90
14993;DHT22;7592;51.088;13.732;2022-12-07T08:15:24;4.60;99.90
14993;DHT22;7592;51.088;13.732;2022-12-07T08:20:16;4.70;99.90
14993;DHT22;7592;51.088;13.732;2022-12-07T08:25:08;4.90;99.90
14993;DHT22;7592;51.088;13.732;2022-12-07T08:30:00;5.10;99.90
14993;DHT22;7592;51.088;13.732;2022-12-07T08:34:53;5.30;99.90
14993;DHT22;7592;51.088;13.732;2022-12-07T08:39:45;5.40;99.90
14993;DHT22;7592;51.088;13.732;2022-12-07T08:44:37;5.50;99.90
14993;DHT22;7592;51.088;13.732;2022-12-07T08:49:41;5.50;99.90
14993;DHT22;7592;51.088;13.732;2022-12-07T08:54:37;5.50;99.90
14993;DHT22;7592;51.088;13.732;2022-12-07T08:59:30;5.60;99.90
14993;DHT22;7592;51.088;13.732;2022-12-07T09:04:22;5.80;99.90
14993;DHT22;7592;51.088;13.732;2022-12-07T09:09:14;5.90;99.90
14993;DHT22;7592;51.088;13.732;2022-12-07T09:14:07;6.20;99.90
14993;DHT22;7592;51.088;13.732;2022-12-07T09:18:59;6.50;99.90
14993;DHT22;7592;51.088;13.732;2022-12-07T09:23:51;6.70;99.90
14993;DHT22;7592;51.088;13.732;2022-12-07T09:28:43;7.20;99.90
14993;DHT22;7592;51.088;13.732;2022-12-07T09:33:35;7.50;99.90
14993;DHT22;7592;51.088;13.732;2022-12-07T09:38:27;7.40;99.90
14993;DHT22;7592;51.088;13.732;2022-12-07T09:43:25;7.50;99.90
14993;DHT22;7592;51.088;13.732;2022-12-07T09:48:38;7.40;99.90
14993;DHT22;7592;51.088;13.732;2022-12-07T09:53:34;7.70;99.90
14993;DHT22;7592;51.088;13.732;2022-12-07T09:58:28;8.70;99.90
14993;DHT22;7592;51.088;13.732;2022-12-07T10:03:21;9.50;99.90
14993;DHT22;7592;51.088;13.732;2022-12-07T10:08:14;9.40;99.90
14993;DHT22;7592;51.088;13.732;2022-12-07T10:13:11;10.40;99.90
14993;DHT22;7592;51.088;13.732;2022-12-07T10:18:03;11.40;99.90
14993;DHT22;7592;51.088;13.732;2022-12-07T10:23:00;12.40;99.90
14993;DHT22;7592;51.088;13.732;2022-12-07T10:28:10;14.90;99.90
14993;DHT22;7592;51.088;13.732;2022-12-07T10:38:20;13.20;99.90
14993;DHT22;7592;51.088;13.732;2022-12-07T10:48:09;9.80;99.90
14993;DHT22;7592;51.088;13.732;2022-12-07T10:58:21;8.40;99.90
14993;DHT22;7592;51.088;13.732;2022-12-07T11:18:52;7.60;99.90
14993;DHT22;7592;51.088;13.732;2022-12-07T11:39:30;7.40;99.90
14993;DHT22;7592;51.088;13.732;2022-12-07T11:49:44;6.50;99.90
14993;DHT22;7592;51.088;13.732;2022-12-07T11:54:42;6.20;99.90
14993;DHT22;7592;51.088;13.732;2022-12-07T11:59:47;6.00;99.90
14993;DHT22;7592;51.088;13.732;2022-12-07T12:05:20;6.00;99.90
14993;DHT22;7592;51.088;13.732;2022-12-07T12:16:06;6.00;99.90
14993;DHT22;7592;51.088;13.732;2022-12-07T12:21:18;6.10;99.90
14993;DHT22;7592;51.088;13.732;2022-12-07T12:26:21;6.40;99.90
14993;DHT22;7592;51.088;13.732;2022-12-07T12:31:16;6.60;99.90
14993;DHT22;7592;51.088;13.732;2022-12-07T12:36:22;6.70;99.90
14993;DHT22;7592;51.088;13.732;2022-12-07T12:51:39;7.20;99.90
14993;DHT22;7592;51.088;13.732;2022-12-07T13:01:40;7.20;99.90
14993;DHT22;7592;51.088;13.732;2022-12-07T13:06:35;6.90;99.90
14993;DHT22;7592;51.088;13.732;2022-12-07T13:11:33;6.60;99.90
14993;DHT22;7592;51.088;13.732;2022-12-07T13:16:37;6.20;99.90
14993;DHT22;7592;51.088;13.732;2022-12-07T13:26:36;5.60;99.90
14993;DHT22;7592;51.088;13.732;2022-12-07T13:31:43;5.40;99.90
14993;DHT22;7592;51.088;13.732;2022-12-07T13:36:39;5.30;99.90
14993;DHT22;7592;51.088;13.732;2022-12-07T13:41:31;5.20;99.90
14993;DHT22;7592;51.088;13.732;2022-12-07T13:46:31;5.30;99.90
14993;DHT22;7592;51.088;13.732;2022-12-07T13:51:26;5.20;99.90
14993;DHT22;7592;51.088;13.732;2022-12-07T13:56:21;5.30;99.90
14993;DHT22;7592;51.088;13.732;2022-12-07T14:01:13;5.30;99.90
14993;DHT22;7592;51.088;13.732;2022-12-07T14:06:19;5.40;99.90
14993;DHT22;7592;51.088;13.732;2022-12-07T14:11:21;5.40;99.90
14993;DHT22;7592;51.088;13.732;2022-12-07T14:16:25;5.50;99.90
14993;DHT22;7592;51.088;13.732;2022-12-07T14:21:25;5.60;99.90
14993;DHT22;7592;51.088;13.732;2022-12-07T14:26:21;5.50;99.90
14993;DHT22;7592;51.088;13.732;2022-12-07T14:31:15;5.50;99.90
14993;DHT22;7592;51.088;13.732;2022-12-07T14:36:20;5.60;99.90
14993;DHT22;7592;51.088;13.732;2022-12-07T14:41:23;5.50;99.90
14993;DHT22;7592;51.088;13.732;2022-12-07T14:46:34;5.50;99.90
14993;DHT22;7592;51.088;13.732;2022-12-07T14:51:26;5.40;99.90
14993;DHT22;7592;51.088;13.732;2022-12-07T14:56:38;5.40;99.90
14993;DHT22;7592;51.088;13.732;2022-12-07T15:01:30;5.40;99.90
14993;DHT22;7592;51.088;13.732;2022-12-07T15:06:22;5.30;99.90
14993;DHT22;7592;51.088;13.732;2022-12-07T15:11:16;5.30;99.90
14993;DHT22;7592;51.088;13.732;2022-12-07T15:16:10;5.30;99.90
14993;DHT22;7592;51.088;13.732;2022-12-07T15:21:04;5.30;99.90
14993;DHT22;7592;51.088;13.732;2022-12-07T15:25:56;5.30;99.90
14993;DHT22;7592;51.088;13.732;2022-12-07T15:30:48;5.30;99.90
14993;DHT22;7592;51.088;13.732;2022-12-07T15:35:44;5.30;99.90
14993;DHT22;7592;51.088;13.732;2022-12-07T15:40:37;5.30;99.90
14993;DHT22;7592;51.088;13.732;2022-12-07T15:45:29;5.20;99.90
14993;DHT22;7592;51.088;13.732;2022-12-07T15:50:22;5.10;99.90
14993;DHT22;7592;51.088;13.732;2022-12-07T15:55:14;5.10;99.90
14993;DHT22;7592;51.088;13.732;2022-12-07T16:00:08;5.00;99.90
14993;DHT22;7592;51.088;13.732;2022-12-07T16:05:01;4.90;99.90
14993;DHT22;7592;51.088;13.732;2022-12-07T16:09:55;4.70;99.90
14993;DHT22;7592;51.088;13.732;2022-12-07T16:14:48;4.60;99.90
14993;DHT22;7592;51.088;13.732;2022-12-07T16:19:41;4.60;99.90
14993;DHT22;7592;51.088;13.732;2022-12-07T16:24:33;4.60;99.90
14993;DHT22;7592;51.088;13.732;2022-12-07T16:29:25;4.60;99.90
14993;DHT22;7592;51.088;13.732;2022-12-07T16:34:18;4.60;99.90
14993;DHT22;7592;51.088;13.732;2022-12-07T16:39:10;4.60;99.90
14993;DHT22;7592;51.088;13.732;2022-12-07T16:44:04;4.70;99.90
14993;DHT22;7592;51.088;13.732;2022-12-07T16:48:57;4.80;99.90
14993;DHT22;7592;51.088;13.732;2022-12-07T16:53:52;4.80;99.90
14993;DHT22;7592;51.088;13.732;2022-12-07T16:58:44;4.90;99.90
14993;DHT22;7592;51.088;13.732;2022-12-07T17:03:38;4.90;99.90
14993;DHT22;7592;51.088;13.732;2022-12-07T17:08:30;4.90;99.90
14993;DHT22;7592;51.088;13.732;2022-12-07T17:13:22;4.90;99.90
14993;DHT22;7592;51.088;13.732;2022-12-07T17:18:35;4.80;99.90
14993;DHT22;7592;51.088;13.732;2022-12-07T17:23:27;4.80;99.90
14993;DHT22;7592;51.088;13.732;2022-12-07T17:28:20;4.80;99.90
14993;DHT22;7592;51.088;13.732;2022-12-07T17:33:12;4.80;99.90
14993;DHT22;7592;51.088;13.732;2022-12-07T17:38:04;4.70;99.90
14993;DHT22;7592;51.088;13.732;2022-12-07T17:42:56;4.70;99.90
14993;DHT22;7592;51.088;13.732;2022-12-07T17:47:48;4.60;99.90
14993;DHT22;7592;51.088;13.732;2022-12-07T17:52:40;4.60;99.90
14993;DHT22;7592;51.088;13.732;2022-12-07T17:57:50;4.50;99.90
14993;DHT22;7592;51.088;13.732;2022-12-07T18:02:42;4.60;99.90
14993;DHT22;7592;51.088;13.732;2022-12-07T18:07:34;4.60;99.90
14993;DHT22;7592;51.088;13.732;2022-12-07T18:12:27;4.70;99.90
14993;DHT22;7592;51.088;13.732;2022-12-07T18:17:19;4.80;99.90
14993;DHT22;7592;51.088;13.732;2022-12-07T18:22:11;4.90;99.90
14993;DHT22;7592;51.088;13.732;2022-12-07T18:27:04;4.80;99.90
14993;DHT22;7592;51.088;13.732;2022-12-07T18:31:57;4.70;99.90
14993;DHT22;7592;51.088;13.732;2022-12-07T18:36:50;4.40;99.90
14993;DHT22;7592;51.088;13.732;2022-12-07T18:41:42;4.20;99.90
14993;DHT22;7592;51.088;13.732;2022-12-07T18:46:34;4.10;99.90
14993;DHT22;7592;51.088;13.732;2022-12-07T18:51:27;4.10;99.90
14993;DHT22;7592;51.088;13.732;2022-12-07T18:56:24;4.00;99.90
14993;DHT22;7592;51.088;13.732;2022-12-07T19:01:16;3.90;99.90
14993;DHT22;7592;51.088;13.732;2022-12-07T19:06:09;3.80;99.90
14993;DHT22;7592;51.088;13.732;2022-12-07T19:11:01;3.80;99.90
14993;DHT22;7592;51.088;13.732;2022-12-07T19:16:15;3.80;99.90
14993;DHT22;7592;51.088;13.732;2022-12-07T19:21:07;3.70;99.90
14993;DHT22;7592;51.088;13.732;2022-12-07T19:25:59;3.80;99.90
14993;DHT22;7592;51.088;13.732;2022-12-07T19:30:51;3.70;99.90
14993;DHT22;7592;51.088;13.732;2022-12-07T19:35:44;3.70;99.90
14993;DHT22;7592;51.088;13.732;2022-12-07T19:40:36;3.70;99.90
14993;DHT22;7592;51.088;13.732;2022-12-07T19:45:28;3.80;99.90
14993;DHT22;7592;51.088;13.732;2022-12-07T19:50:23;3.90;99.90
14993;DHT22;7592;51.088;13.732;2022-12-07T19:55:15;3.90;99.90
14993;DHT22;7592;51.088;13.732;2022-12-07T20:00:08;3.90;99.90
14993;DHT22;7592;51.088;13.732;2022-12-07T20:05:00;3.80;99.90
14993;DHT22;7592;51.088;13.732;2022-12-07T20:09:58;3.80;99.90
14993;DHT22;7592;51.088;13.732;2022-12-07T20:14:50;3.80;99.90
14993;DHT22;7592;51.088;13.732;2022-12-07T20:19:42;3.80;99.90
14993;DHT22;7592;51.088;13.732;2022-12-07T20:24:34;3.80;99.90
14993;DHT22;7592;51.088;13.732;2022-12-07T20:29:27;3.80;99.90
14993;DHT22;7592;51.088;13.732;2022-12-07T20:34:19;3.80;99.90
14993;DHT22;7592;51.088;13.732;2022-12-07T20:39:12;3.80;99.90
14993;DHT22;7592;51.088;13.732;2022-12-07T20:44:04;3.60;99.90
14993;DHT22;7592;51.088;13.732;2022-12-07T20:49:00;3.40;99.90
14993;DHT22;7592;51.088;13.732;2022-12-07T20:53:52;3.40;99.90
14993;DHT22;7592;51.088;13.732;2022-12-07T20:58:44;3.30;99.90
14993;DHT22;7592;51.088;13.732;2022-12-07T21:03:37;3.30;99.90
14993;DHT22;7592;51.088;13.732;2022-12-07T21:08:29;3.30;99.90
14993;DHT22;7592;51.088;13.732;2022-12-07T21:13:21;3.40;99.90
14993;DHT22;7592;51.088;13.732;2022-12-07T21:18:13;3.30;99.90
14993;DHT22;7592;51.088;13.732;2022-12-07T21:23:05;3.30;99.90
14993;DHT22;7592;51.088;13.732;2022-12-07T21:27:58;3.30;99.90
14993;DHT22;7592;51.088;13.732;2022-12-07T21:32:50;3.30;99.90
14993;DHT22;7592;51.088;13.732;2022-12-07T21:37:42;3.40;99.90
14993;DHT22;7592;51.088;13.732;2022-12-07T21:42:34;3.30;99.90
14993;DHT22;7592;51.088;13.732;2022-12-07T21:47:26;3.40;99.90
14993;DHT22;7592;51.088;13.732;2022-12-07T21:52:18;3.40;99.90
14993;DHT22;7592;51.088;13.732;2022-12-07T21:57:10;3.50;99.90
14993;DHT22;7592;51.088;13.732;2022-12-07T22:02:02;3.60;99.90
14993;DHT22;7592;51.088;13.732;2022-12-07T22:06:54;3.60;99.90
14993;DHT22;7592;51.088;13.732;2022-12-07T22:11:48;3.70;99.90
14993;DHT22;7592;51.088;13.732;2022-12-07T22:16:40;3.70;99.90
14993;DHT22;7592;51.088;13.732;2022-12-07T22:21:33;3.70;99.90
14993;DHT22;7592;51.088;13.732;2022-12-07T22:26:25;3.80;99.90
14993;DHT22;7592;51.088;13.732;2022-12-07T22:31:19;3.90;99.90
14993;DHT22;7592;51.088;13.732;2022-12-07T22:36:12;4.00;99.90
14993;DHT22;7592;51.088;13.732;2022-12-07T22:46:04;4.20;99.90
14993;DHT22;7592;51.088;13.732;2022-12-07T22:50:56;4.20;99.90
14993;DHT22;7592;51.088;13.732;2022-12-07T22:55:49;4.20;99.90
14993;DHT22;7592;51.088;13.732;2022-12-07T23:00:42;4.20;99.90
14993;DHT22;7592;51.088;13.732;2022-12-07T23:05:41;4.30;99.90
14993;DHT22;7592;51.088;13.732;2022-12-07T23:10:33;4.30;99.90
14993;DHT22;7592;51.088;13.732;2022-12-07T23:15:25;4.30;99.90
14993;DHT22;7592;51.088;13.732;2022-12-07T23:20:17;4.40;99.90
14993;DHT22;7592;51.088;13.732;2022-12-07T23:25:11;4.40;99.90
14993;DHT22;7592;51.088;13.732;2022-12-07T23:30:06;4.40;99.90
14993;DHT22;7592;51.088;13.732;2022-12-07T23:34:58;4.30;99.90
14993;DHT22;7592;51.088;13.732;2022-12-07T23:39:50;4.30;99.90
14993;DHT22;7592;51.088;13.732;2022-12-07T23:44:42;4.30;99.90
14993;DHT22;7592;51.088;13.732;2022-12-07T23:49:34;4.50;99.90
14993;DHT22;7592;51.088;13.732;2022-12-07T23:54:26;4.60;99.90
14993;DHT22;7592;51.088;13.732;2022-12-07T23:59:18;4.60;99.90
